sensor_id;sensor_type;location;lat;lon;timestamp;pressure;altitude;pressure_sealevel;temperature;humidity
30516;BME280;17297;54.022;10.760;2022-12-10T00:01:11;100909.13;;;3.10;67.52
30516;BME280;17297;54.022;10.760;2022-12-10T00:03:37;100909.13;;;3.10;67.24
30516;BME280;17297;54.022;10.760;2022-12-10T00:06:05;100910.78;;;3.11;67.27
30516;BME280;17297;54.022;10.760;2022-12-10T00:08:31;100913.44;;;3.11;67.54
30516;BME280;17297;54.022;10.760;2022-12-10T00:10:57;100916.09;;;3.11;67.38
30516;BME280;17297;54.022;10.760;2022-12-10T00:13:22;100914.16;;;3.13;67.45
30516;BME280;17297;54.022;10.760;2022-12-10T00:15:47;100917.66;;;3.14;67.45
30516;BME280;17297;54.022;10.760;2022-12-10T00:18:13;100908.84;;;3.13;67.20
30516;BME280;17297;54.022;10.760;2022-12-10T00:20:38;100912.31;;;3.14;67.30
30516;BME280;17297;54.022;10.760;2022-12-10T00:23:04;100909.66;;;3.14;67.37
30516;BME280;17297;54.022;10.760;2022-12-10T00:25:29;100923.66;;;3.16;67.61
30516;BME280;17297;54.022;10.760;2022-12-10T00:27:56;100906.88;;;3.15;67.50
30516;BME280;17297;54.022;10.760;2022-12-10T00:30:21;100918.34;;;3.16;67.21
30516;BME280;17297;54.022;10.760;2022-12-10T00:32:47;100918.34;;;3.16;67.26
30516;BME280;17297;54.022;10.760;2022-12-10T00:35:13;100924.50;;;3.16;67.31
30516;BME280;17297;54.022;10.760;2022-12-10T00:37:38;100926.16;;;3.17;67.49
30516;BME280;17297;54.022;10.760;2022-12-10T00:40:03;100920.84;;;3.17;67.36
30516;BME280;17297;54.022;10.760;2022-12-10T00:42:30;100918.19;;;3.17;67.25
30516;BME280;17297;54.022;10.760;2022-12-10T00:44:55;100920.84;;;3.17;67.26
30516;BME280;17297;54.022;10.760;2022-12-10T00:47:22;100920.72;;;3.19;67.36
30516;BME280;17297;54.022;10.760;2022-12-10T00:49:47;100918.91;;;3.19;67.38
30516;BME280;17297;54.022;10.760;2022-12-10T00:52:12;100912.75;;;3.19;67.34
30516;BME280;17297;54.022;10.760;2022-12-10T00:54:38;100915.41;;;3.19;67.22
30516;BME280;17297;54.022;10.760;2022-12-10T00:57:03;100917.09;;;3.20;67.47
30516;BME280;17297;54.022;10.760;2022-12-10T00:59:28;100923.22;;;3.20;67.25
30516;BME280;17297;54.022;10.760;2022-12-10T01:01:54;100925.91;;;3.20;67.41
30516;BME280;17297;54.022;10.760;2022-12-10T01:04:19;100922.13;;;3.23;67.24
30516;BME280;17297;54.022;10.760;2022-12-10T01:06:50;100924.78;;;3.23;67.31
30516;BME280;17297;54.022;10.760;2022-12-10T01:09:21;100933.75;;;3.22;67.25
30516;BME280;17297;54.022;10.760;2022-12-10T01:11:48;100929.25;;;3.22;67.28
30516;BME280;17297;54.022;10.760;2022-12-10T01:14:18;100933.75;;;3.22;67.43
30516;BME280;17297;54.022;10.760;2022-12-10T01:16:46;100930.94;;;3.23;67.35
30516;BME280;17297;54.022;10.760;2022-12-10T01:19:12;100936.97;;;3.26;67.43
30516;BME280;17297;54.022;10.760;2022-12-10T01:21:37;100938.78;;;3.25;67.42
30516;BME280;17297;54.022;10.760;2022-12-10T01:24:03;100937.94;;;3.24;67.46
30516;BME280;17297;54.022;10.760;2022-12-10T01:26:31;100935.28;;;3.24;67.48
30516;BME280;17297;54.022;10.760;2022-12-10T01:28:57;100940.59;;;3.24;67.40
30516;BME280;17297;54.022;10.760;2022-12-10T01:33:50;100944.09;;;3.25;67.36
30516;BME280;17297;54.022;10.760;2022-12-10T01:36:27;100948.59;;;3.24;67.40
30516;BME280;17297;54.022;10.760;2022-12-10T01:38:53;100943.25;;;3.24;67.47
30516;BME280;17297;54.022;10.760;2022-12-10T01:41:25;100939.63;;;3.26;67.37
30516;BME280;17297;54.022;10.760;2022-12-10T01:44:00;100936.13;;;3.25;67.29
30516;BME280;17297;54.022;10.760;2022-12-10T01:46:27;100938.63;;;3.27;67.20
30516;BME280;17297;54.022;10.760;2022-12-10T01:48:55;100937.94;;;3.24;67.12
30516;BME280;17297;54.022;10.760;2022-12-10T01:51:23;100944.09;;;3.25;67.36
30516;BME280;17297;54.022;10.760;2022-12-10T01:53:49;100943.25;;;3.24;67.50
30516;BME280;17297;54.022;10.760;2022-12-10T01:56:16;100940.44;;;3.26;67.46
30516;BME280;17297;54.022;10.760;2022-12-10T01:58:43;100930.66;;;3.27;67.21
30516;BME280;17297;54.022;10.760;2022-12-10T02:01:12;100936.84;;;3.27;67.20
30516;BME280;17297;54.022;10.760;2022-12-10T02:07:10;100933.31;;;3.27;67.46
30516;BME280;17297;54.022;10.760;2022-12-10T02:09:38;100938.50;;;3.28;67.48
30516;BME280;17297;54.022;10.760;2022-12-10T02:12:10;100946.47;;;3.28;67.33
30516;BME280;17297;54.022;10.760;2022-12-10T02:17:14;100947.47;;;3.27;67.52
30516;BME280;17297;54.022;10.760;2022-12-10T02:22:20;100949.25;;;3.27;67.22
30516;BME280;17297;54.022;10.760;2022-12-10T02:24:51;100953.63;;;3.28;67.43
30516;BME280;17297;54.022;10.760;2022-12-10T02:27:24;100943.94;;;3.27;67.25
30516;BME280;17297;54.022;10.760;2022-12-10T02:30:11;100944.81;;;3.27;67.46
30516;BME280;17297;54.022;10.760;2022-12-10T02:32:39;100949.13;;;3.28;67.12
30516;BME280;17297;54.022;10.760;2022-12-10T02:35:16;100946.47;;;3.28;67.38
30516;BME280;17297;54.022;10.760;2022-12-10T02:37:51;100951.78;;;3.28;67.33
30516;BME280;17297;54.022;10.760;2022-12-10T02:40:23;100950.81;;;3.29;67.28
30516;BME280;17297;54.022;10.760;2022-12-10T02:42:52;100958.66;;;3.31;67.33
30516;BME280;17297;54.022;10.760;2022-12-10T02:45:22;100966.47;;;3.32;67.36
30516;BME280;17297;54.022;10.760;2022-12-10T02:47:50;100964.09;;;3.29;67.29
30516;BME280;17297;54.022;10.760;2022-12-10T02:50:19;100968.75;;;3.27;67.14
30516;BME280;17297;54.022;10.760;2022-12-10T02:52:48;100960.19;;;3.23;67.30
30516;BME280;17297;54.022;10.760;2022-12-10T02:55:14;100967.47;;;3.21;67.23
30516;BME280;17297;54.022;10.760;2022-12-10T03:00:31;100967.47;;;3.21;67.25
30516;BME280;17297;54.022;10.760;2022-12-10T03:03:22;100960.34;;;3.22;67.32
30516;BME280;17297;54.022;10.760;2022-12-10T03:05:59;100968.16;;;3.23;67.40
30516;BME280;17297;54.022;10.760;2022-12-10T03:08:37;100963.13;;;3.20;67.26
30516;BME280;17297;54.022;10.760;2022-12-10T03:11:15;100963.38;;;3.17;67.17
30516;BME280;17297;54.022;10.760;2022-12-10T03:13:57;100958.91;;;3.08;66.74
30516;BME280;17297;54.022;10.760;2022-12-10T03:16:28;100971.38;;;2.98;66.86
30516;BME280;17297;54.022;10.760;2022-12-10T03:19:00;100964.94;;;2.91;66.96
30516;BME280;17297;54.022;10.760;2022-12-10T03:21:28;100974.00;;;2.88;66.98
30516;BME280;17297;54.022;10.760;2022-12-10T03:23:54;100966.47;;;2.84;67.17
30516;BME280;17297;54.022;10.760;2022-12-10T03:26:21;100966.75;;;2.81;66.99
30516;BME280;17297;54.022;10.760;2022-12-10T03:28:56;100969.78;;;2.76;67.04
30516;BME280;17297;54.022;10.760;2022-12-10T03:31:24;100967.28;;;2.74;67.05
30516;BME280;17297;54.022;10.760;2022-12-10T03:33:49;100965.59;;;2.73;67.14
30516;BME280;17297;54.022;10.760;2022-12-10T03:36:17;100967.56;;;2.71;67.07
30516;BME280;17297;54.022;10.760;2022-12-10T03:38:44;100968.25;;;2.73;67.15
30516;BME280;17297;54.022;10.760;2022-12-10T03:41:09;100974.38;;;2.74;67.30
30516;BME280;17297;54.022;10.760;2022-12-10T03:43:35;100972.44;;;2.76;67.21
30516;BME280;17297;54.022;10.760;2022-12-10T03:46:00;100977.38;;;2.81;67.38
30516;BME280;17297;54.022;10.760;2022-12-10T03:48:26;100973.44;;;2.85;67.21
30516;BME280;17297;54.022;10.760;2022-12-10T03:50:51;100978.34;;;2.89;67.28
30516;BME280;17297;54.022;10.760;2022-12-10T03:53:17;100977.22;;;2.92;67.34
30516;BME280;17297;54.022;10.760;2022-12-10T03:55:42;100978.78;;;2.94;67.11
30516;BME280;17297;54.022;10.760;2022-12-10T03:58:08;100976.69;;;2.98;67.23
30516;BME280;17297;54.022;10.760;2022-12-10T04:00:33;100980.88;;;3.00;67.18
30516;BME280;17297;54.022;10.760;2022-12-10T04:02:59;100979.91;;;3.01;67.13
30516;BME280;17297;54.022;10.760;2022-12-10T04:05:24;100982.28;;;3.05;67.00
30516;BME280;17297;54.022;10.760;2022-12-10T04:07:49;100984.81;;;3.06;67.04
30516;BME280;17297;54.022;10.760;2022-12-10T04:10:15;100983.81;;;3.07;67.23
30516;BME280;17297;54.022;10.760;2022-12-10T04:12:40;100982.72;;;3.10;67.13
30516;BME280;17297;54.022;10.760;2022-12-10T04:15:07;100985.09;;;3.13;67.14
30516;BME280;17297;54.022;10.760;2022-12-10T04:17:51;100984.09;;;3.14;67.17
30516;BME280;17297;54.022;10.760;2022-12-10T04:20:17;100984.09;;;3.14;67.02
30516;BME280;17297;54.022;10.760;2022-12-10T04:23:01;100989.28;;;3.15;67.12
30516;BME280;17297;54.022;10.760;2022-12-10T04:25:45;100986.63;;;3.15;67.20
30516;BME280;17297;54.022;10.760;2022-12-10T04:28:29;100986.63;;;3.15;66.83
30516;BME280;17297;54.022;10.760;2022-12-10T04:30:54;100984.94;;;3.14;66.90
30516;BME280;17297;54.022;10.760;2022-12-10T04:33:20;100982.56;;;3.11;66.95
30516;BME280;17297;54.022;10.760;2022-12-10T04:35:45;100989.56;;;3.12;66.84
30516;BME280;17297;54.022;10.760;2022-12-10T04:38:11;100990.41;;;3.13;67.00
30516;BME280;17297;54.022;10.760;2022-12-10T04:40:37;100989.41;;;3.14;66.98
30516;BME280;17297;54.022;10.760;2022-12-10T04:43:02;100984.09;;;3.14;67.03
30516;BME280;17297;54.022;10.760;2022-12-10T04:45:27;100990.25;;;3.14;67.06
30516;BME280;17297;54.022;10.760;2022-12-10T04:47:53;100984.09;;;3.14;66.92
30516;BME280;17297;54.022;10.760;2022-12-10T04:50:18;100990.25;;;3.14;66.97
30516;BME280;17297;54.022;10.760;2022-12-10T04:52:43;100990.13;;;3.16;66.77
30516;BME280;17297;54.022;10.760;2022-12-10T04:55:09;100988.31;;;3.16;66.91
30516;BME280;17297;54.022;10.760;2022-12-10T04:57:34;100982.16;;;3.16;66.84
30516;BME280;17297;54.022;10.760;2022-12-10T04:59:59;100989.16;;;3.17;66.89
30516;BME280;17297;54.022;10.760;2022-12-10T05:02:25;100990.97;;;3.16;66.81
30516;BME280;17297;54.022;10.760;2022-12-10T05:04:51;100988.19;;;3.18;66.83
30516;BME280;17297;54.022;10.760;2022-12-10T05:07:16;100994.47;;;3.17;66.71
30516;BME280;17297;54.022;10.760;2022-12-10T05:09:41;100989.97;;;3.17;66.75
30516;BME280;17297;54.022;10.760;2022-12-10T05:12:07;100994.47;;;3.17;66.60
30516;BME280;17297;54.022;10.760;2022-12-10T05:14:32;100996.16;;;3.18;66.83
30516;BME280;17297;54.022;10.760;2022-12-10T05:16:57;100997.94;;;3.17;66.68
30516;BME280;17297;54.022;10.760;2022-12-10T05:19:23;100989.97;;;3.17;66.69
30516;BME280;17297;54.022;10.760;2022-12-10T05:21:51;100990.13;;;3.16;66.72
30516;BME280;17297;54.022;10.760;2022-12-10T05:24:35;100994.63;;;3.15;66.81
30516;BME280;17297;54.022;10.760;2022-12-10T05:27:01;100993.78;;;3.15;66.49
30516;BME280;17297;54.022;10.760;2022-12-10T05:29:26;100994.06;;;3.12;66.42
30516;BME280;17297;54.022;10.760;2022-12-10T05:31:51;100993.63;;;3.07;66.52
30516;BME280;17297;54.022;10.760;2022-12-10T05:34:17;101000.03;;;3.04;66.46
30516;BME280;17297;54.022;10.760;2022-12-10T05:36:42;100994.03;;;3.02;66.79
30516;BME280;17297;54.022;10.760;2022-12-10T05:39:10;100994.88;;;3.03;66.65
30516;BME280;17297;54.022;10.760;2022-12-10T05:41:37;100996.69;;;3.02;66.72
30516;BME280;17297;54.022;10.760;2022-12-10T05:44:03;101000.88;;;3.05;66.68
30516;BME280;17297;54.022;10.760;2022-12-10T05:46:32;100993.91;;;3.04;66.64
30516;BME280;17297;54.022;10.760;2022-12-10T05:48:57;100997.28;;;3.06;66.67
30516;BME280;17297;54.022;10.760;2022-12-10T05:51:27;100991.25;;;3.04;66.54
30516;BME280;17297;54.022;10.760;2022-12-10T05:53:53;100994.59;;;3.06;66.52
30516;BME280;17297;54.022;10.760;2022-12-10T05:56:21;100996.28;;;3.07;66.48
30516;BME280;17297;54.022;10.760;2022-12-10T05:58:48;101000.59;;;3.08;66.43
30516;BME280;17297;54.022;10.760;2022-12-10T06:01:17;100994.34;;;3.09;66.55
30516;BME280;17297;54.022;10.760;2022-12-10T06:03:43;100997.00;;;3.09;66.58
30516;BME280;17297;54.022;10.760;2022-12-10T06:06:09;100997.00;;;3.09;66.53
30516;BME280;17297;54.022;10.760;2022-12-10T06:08:35;100997.81;;;3.09;66.36
30516;BME280;17297;54.022;10.760;2022-12-10T06:11:08;101002.16;;;3.10;66.51
30516;BME280;17297;54.022;10.760;2022-12-10T06:13:34;101005.66;;;3.11;66.55
30516;BME280;17297;54.022;10.760;2022-12-10T06:16:07;101008.31;;;3.11;66.45
30516;BME280;17297;54.022;10.760;2022-12-10T06:18:33;101008.31;;;3.11;66.49
30516;BME280;17297;54.022;10.760;2022-12-10T06:20:58;101013.63;;;3.11;66.48
30516;BME280;17297;54.022;10.760;2022-12-10T06:23:24;101012.66;;;3.12;66.44
30516;BME280;17297;54.022;10.760;2022-12-10T06:25:49;101008.31;;;3.11;66.39
30516;BME280;17297;54.022;10.760;2022-12-10T06:28:14;101007.47;;;3.10;66.32
30516;BME280;17297;54.022;10.760;2022-12-10T06:30:40;101012.66;;;3.12;66.39
30516;BME280;17297;54.022;10.760;2022-12-10T06:33:05;101013.63;;;3.11;66.56
30516;BME280;17297;54.022;10.760;2022-12-10T06:35:30;101016.16;;;3.12;66.32
30516;BME280;17297;54.022;10.760;2022-12-10T06:37:56;101010.00;;;3.12;66.35
30516;BME280;17297;54.022;10.760;2022-12-10T06:40:21;101010.84;;;3.12;66.48
30516;BME280;17297;54.022;10.760;2022-12-10T06:42:50;101014.47;;;3.11;66.58
30516;BME280;17297;54.022;10.760;2022-12-10T06:45:16;101011.78;;;3.11;66.56
30516;BME280;17297;54.022;10.760;2022-12-10T06:47:42;101011.78;;;3.11;66.42
30516;BME280;17297;54.022;10.760;2022-12-10T06:50:08;101015.16;;;3.13;66.56
30516;BME280;17297;54.022;10.760;2022-12-10T06:52:33;101017.00;;;3.13;66.51
30516;BME280;17297;54.022;10.760;2022-12-10T06:55:01;101014.34;;;3.13;66.43
30516;BME280;17297;54.022;10.760;2022-12-10T06:57:27;101015.16;;;3.13;66.42
30516;BME280;17297;54.022;10.760;2022-12-10T06:59:52;101021.31;;;3.14;66.44
30516;BME280;17297;54.022;10.760;2022-12-10T07:02:17;101012.38;;;3.15;66.45
30516;BME280;17297;54.022;10.760;2022-12-10T07:04:43;101018.53;;;3.15;66.48
30516;BME280;17297;54.022;10.760;2022-12-10T07:07:08;101025.69;;;3.15;66.30
30516;BME280;17297;54.022;10.760;2022-12-10T07:09:34;101023.84;;;3.15;66.34
30516;BME280;17297;54.022;10.760;2022-12-10T07:11:59;101029.19;;;3.15;66.27
30516;BME280;17297;54.022;10.760;2022-12-10T07:14:25;101031.97;;;3.14;66.42
30516;BME280;17297;54.022;10.760;2022-12-10T07:16:50;101033.78;;;3.13;66.42
30516;BME280;17297;54.022;10.760;2022-12-10T07:19:15;101032.09;;;3.12;66.14
30516;BME280;17297;54.022;10.760;2022-12-10T07:21:42;101040.09;;;3.12;66.32
30516;BME280;17297;54.022;10.760;2022-12-10T07:24:13;101041.03;;;3.11;66.32
30516;BME280;17297;54.022;10.760;2022-12-10T07:26:40;101047.22;;;3.12;66.26
30516;BME280;17297;54.022;10.760;2022-12-10T07:29:09;101043.69;;;3.11;66.21
30516;BME280;17297;54.022;10.760;2022-12-10T07:31:35;101042.88;;;3.11;66.26
30516;BME280;17297;54.022;10.760;2022-12-10T07:34:01;101048.91;;;3.13;66.18
30516;BME280;17297;54.022;10.760;2022-12-10T07:36:26;101045.41;;;3.12;66.28
30516;BME280;17297;54.022;10.760;2022-12-10T07:38:53;101055.03;;;3.13;66.42
30516;BME280;17297;54.022;10.760;2022-12-10T07:41:21;101056.72;;;3.14;66.41
30516;BME280;17297;54.022;10.760;2022-12-10T07:43:47;101060.25;;;3.15;66.37
30516;BME280;17297;54.022;10.760;2022-12-10T07:46:19;101052.38;;;3.13;66.10
30516;BME280;17297;54.022;10.760;2022-12-10T07:48:46;101056.72;;;3.14;66.18
30516;BME280;17297;54.022;10.760;2022-12-10T07:51:12;101058.41;;;3.15;66.22
30516;BME280;17297;54.022;10.760;2022-12-10T07:53:38;101061.06;;;3.15;66.28
30516;BME280;17297;54.022;10.760;2022-12-10T07:56:04;101063.59;;;3.17;66.12
30516;BME280;17297;54.022;10.760;2022-12-10T07:58:29;101059.25;;;3.16;66.39
30516;BME280;17297;54.022;10.760;2022-12-10T08:00:55;101065.41;;;3.16;66.31
30516;BME280;17297;54.022;10.760;2022-12-10T08:03:20;101066.25;;;3.17;66.23
30516;BME280;17297;54.022;10.760;2022-12-10T08:05:46;101067.22;;;3.16;66.22
30516;BME280;17297;54.022;10.760;2022-12-10T08:08:11;101071.16;;;3.12;65.96
30516;BME280;17297;54.022;10.760;2022-12-10T08:10:37;101084.84;;;3.07;65.92
30516;BME280;17297;54.022;10.760;2022-12-10T08:13:03;101073.63;;;3.04;66.23
30516;BME280;17297;54.022;10.760;2022-12-10T08:15:29;101075.47;;;3.03;66.17
30516;BME280;17297;54.022;10.760;2022-12-10T08:17:55;101075.72;;;3.00;66.17
30516;BME280;17297;54.022;10.760;2022-12-10T08:20:21;101083.00;;;2.98;66.20
30516;BME280;17297;54.022;10.760;2022-12-10T08:22:47;101083.00;;;2.98;66.20
30516;BME280;17297;54.022;10.760;2022-12-10T08:25:12;101083.00;;;2.98;66.20
30516;BME280;17297;54.022;10.760;2022-12-10T08:27:38;101081.31;;;2.97;66.05
30516;BME280;17297;54.022;10.760;2022-12-10T08:30:04;101090.41;;;2.94;66.18
30516;BME280;17297;54.022;10.760;2022-12-10T08:32:29;101083.78;;;2.89;65.86
30516;BME280;17297;54.022;10.760;2022-12-10T08:34:55;101095.25;;;2.89;66.03
30516;BME280;17297;54.022;10.760;2022-12-10T08:37:20;101095.69;;;2.85;65.87
30516;BME280;17297;54.022;10.760;2022-12-10T08:39:45;101099.59;;;2.81;66.05
30516;BME280;17297;54.022;10.760;2022-12-10T08:42:11;101102.25;;;2.81;66.19
30516;BME280;17297;54.022;10.760;2022-12-10T08:44:36;101096.06;;;2.80;66.12
30516;BME280;17297;54.022;10.760;2022-12-10T08:47:02;101092.56;;;2.80;66.08
30516;BME280;17297;54.022;10.760;2022-12-10T08:49:27;101101.97;;;2.84;66.25
30516;BME280;17297;54.022;10.760;2022-12-10T08:51:52;101101.97;;;2.84;66.27
30516;BME280;17297;54.022;10.760;2022-12-10T08:54:18;101104.63;;;2.84;65.85
30516;BME280;17297;54.022;10.760;2022-12-10T08:56:43;101106.44;;;2.83;66.05
30516;BME280;17297;54.022;10.760;2022-12-10T08:59:09;101103.78;;;2.83;66.01
30516;BME280;17297;54.022;10.760;2022-12-10T09:01:35;101113.56;;;2.83;66.05
30516;BME280;17297;54.022;10.760;2022-12-10T09:04:00;101105.03;;;2.79;65.98
30516;BME280;17297;54.022;10.760;2022-12-10T09:06:27;101114.81;;;2.78;65.90
30516;BME280;17297;54.022;10.760;2022-12-10T09:08:53;101114.94;;;2.77;66.03
30516;BME280;17297;54.022;10.760;2022-12-10T09:11:22;101119.41;;;2.76;65.97
30516;BME280;17297;54.022;10.760;2022-12-10T09:13:49;101124.72;;;2.76;66.07
30516;BME280;17297;54.022;10.760;2022-12-10T09:16:15;101117.75;;;2.75;66.21
30516;BME280;17297;54.022;10.760;2022-12-10T09:18:40;101129.19;;;2.76;65.97
30516;BME280;17297;54.022;10.760;2022-12-10T09:21:11;101129.19;;;2.76;66.15
30516;BME280;17297;54.022;10.760;2022-12-10T09:23:38;101127.38;;;2.76;66.17
30516;BME280;17297;54.022;10.760;2022-12-10T09:26:08;101130.03;;;2.76;66.15
30516;BME280;17297;54.022;10.760;2022-12-10T09:28:34;101136.06;;;2.78;66.00
30516;BME280;17297;54.022;10.760;2022-12-10T09:31:00;101138.72;;;2.78;65.97
30516;BME280;17297;54.022;10.760;2022-12-10T09:33:27;101137.31;;;2.74;65.86
30516;BME280;17297;54.022;10.760;2022-12-10T09:35:53;101150.88;;;2.71;65.88
30516;BME280;17297;54.022;10.760;2022-12-10T09:38:18;101144.13;;;2.67;65.67
30516;BME280;17297;54.022;10.760;2022-12-10T09:41:00;101145.50;;;2.62;66.00
30516;BME280;17297;54.022;10.760;2022-12-10T09:43:46;101147.28;;;2.61;65.98
30516;BME280;17297;54.022;10.760;2022-12-10T09:46:26;101149.13;;;2.61;65.88
30516;BME280;17297;54.022;10.760;2022-12-10T09:49:08;101139.47;;;2.60;65.93
30516;BME280;17297;54.022;10.760;2022-12-10T09:51:39;101141.03;;;2.62;66.14
30516;BME280;17297;54.022;10.760;2022-12-10T09:54:18;101144.78;;;2.60;65.89
30516;BME280;17297;54.022;10.760;2022-12-10T09:56:44;101140.56;;;2.57;65.91
30516;BME280;17297;54.022;10.760;2022-12-10T09:59:37;101139.16;;;2.53;65.82
30516;BME280;17297;54.022;10.760;2022-12-10T10:02:25;101136.78;;;2.50;65.79
30516;BME280;17297;54.022;10.760;2022-12-10T10:07:31;101142.13;;;2.39;65.76
30516;BME280;17297;54.022;10.760;2022-12-10T10:10:02;101145.06;;;2.36;65.86
30516;BME280;17297;54.022;10.760;2022-12-10T10:12:30;101145.06;;;2.36;65.95
30516;BME280;17297;54.022;10.760;2022-12-10T10:14:55;101141.56;;;2.35;65.73
30516;BME280;17297;54.022;10.760;2022-12-10T10:17:22;101140.72;;;2.35;65.83
30516;BME280;17297;54.022;10.760;2022-12-10T10:19:51;101143.38;;;2.35;65.79
30516;BME280;17297;54.022;10.760;2022-12-10T10:22:16;101139.88;;;2.34;65.85
30516;BME280;17297;54.022;10.760;2022-12-10T10:24:44;101144.34;;;2.34;65.90
30516;BME280;17297;54.022;10.760;2022-12-10T10:27:22;101148.69;;;2.35;65.91
30516;BME280;17297;54.022;10.760;2022-12-10T10:29:50;101147.00;;;2.34;65.75
30516;BME280;17297;54.022;10.760;2022-12-10T10:32:21;101141.09;;;2.30;65.74
30516;BME280;17297;54.022;10.760;2022-12-10T10:34:55;101149.31;;;2.27;65.71
30516;BME280;17297;54.022;10.760;2022-12-10T10:37:27;101149.56;;;2.24;65.97
30516;BME280;17297;54.022;10.760;2022-12-10T10:39:54;101147.06;;;2.22;65.82
30516;BME280;17297;54.022;10.760;2022-12-10T10:42:36;101146.22;;;2.22;65.94
30516;BME280;17297;54.022;10.760;2022-12-10T10:45:05;101147.19;;;2.21;65.65
30516;BME280;17297;54.022;10.760;2022-12-10T10:47:32;101158.94;;;2.18;66.00
30516;BME280;17297;54.022;10.760;2022-12-10T10:49:58;101156.38;;;2.17;65.94
30516;BME280;17297;54.022;10.760;2022-12-10T10:52:35;101157.47;;;2.14;65.76
30516;BME280;17297;54.022;10.760;2022-12-10T10:55:00;101151.84;;;2.07;65.60
30516;BME280;17297;54.022;10.760;2022-12-10T10:57:34;101155.16;;;2.00;65.89
30516;BME280;17297;54.022;10.760;2022-12-10T11:00:04;101152.41;;;1.90;65.76
30516;BME280;17297;54.022;10.760;2022-12-10T11:02:35;101148.97;;;1.78;65.83
30516;BME280;17297;54.022;10.760;2022-12-10T11:05:21;101150.56;;;1.70;66.03
30516;BME280;17297;54.022;10.760;2022-12-10T11:07:57;101149.25;;;1.64;66.01
30516;BME280;17297;54.022;10.760;2022-12-10T11:10:24;101144.19;;;1.61;66.18
30516;BME280;17297;54.022;10.760;2022-12-10T11:13:03;101143.34;;;1.60;66.11
30516;BME280;17297;54.022;10.760;2022-12-10T11:15:33;101148.41;;;1.64;66.18
30516;BME280;17297;54.022;10.760;2022-12-10T11:17:59;101142.97;;;1.65;66.04
30516;BME280;17297;54.022;10.760;2022-12-10T11:20:33;101147.91;;;1.70;66.12
30516;BME280;17297;54.022;10.760;2022-12-10T11:23:01;101130.16;;;1.70;66.06
30516;BME280;17297;54.022;10.760;2022-12-10T11:25:53;101138.03;;;1.72;66.22
30516;BME280;17297;54.022;10.760;2022-12-10T11:28:36;101137.63;;;1.76;66.34
30516;BME280;17297;54.022;10.760;2022-12-10T11:34:19;101135.00;;;1.97;66.28
30516;BME280;17297;54.022;10.760;2022-12-10T11:36:57;101132.69;;;2.04;66.23
30516;BME280;17297;54.022;10.760;2022-12-10T11:45:13;101137.50;;;2.31;66.25
30516;BME280;17297;54.022;10.760;2022-12-10T11:47:54;101138.66;;;2.38;66.23
30516;BME280;17297;54.022;10.760;2022-12-10T11:50:50;101129.31;;;2.44;66.32
30516;BME280;17297;54.022;10.760;2022-12-10T11:58:54;101135.59;;;2.43;65.87
30516;BME280;17297;54.022;10.760;2022-12-10T12:01:34;101128.50;;;2.43;66.10
30516;BME280;17297;54.022;10.760;2022-12-10T12:04:23;101132.41;;;2.49;66.17
30516;BME280;17297;54.022;10.760;2022-12-10T12:07:12;101122.38;;;2.52;66.12
30516;BME280;17297;54.022;10.760;2022-12-10T12:12:31;101123.13;;;2.64;66.08
30516;BME280;17297;54.022;10.760;2022-12-10T12:15:39;101129.72;;;2.70;66.12
30516;BME280;17297;54.022;10.760;2022-12-10T12:18:36;101124.03;;;2.74;66.13
30516;BME280;17297;54.022;10.760;2022-12-10T12:21:10;101121.81;;;2.80;66.22
30516;BME280;17297;54.022;10.760;2022-12-10T12:24:08;101121.53;;;2.83;65.89
30516;BME280;17297;54.022;10.760;2022-12-10T12:30:06;101127.03;;;2.91;65.87
30516;BME280;17297;54.022;10.760;2022-12-10T12:33:10;101124.94;;;2.94;65.86
30516;BME280;17297;54.022;10.760;2022-12-10T12:35:41;101117.81;;;2.95;66.00
30516;BME280;17297;54.022;10.760;2022-12-10T12:40:53;101112.94;;;3.00;65.87
30516;BME280;17297;54.022;10.760;2022-12-10T12:43:24;101111.94;;;3.01;65.76
30516;BME280;17297;54.022;10.760;2022-12-10T12:45:54;101114.34;;;3.04;65.83
30516;BME280;17297;54.022;10.760;2022-12-10T12:48:40;101116.88;;;3.06;65.68
30516;BME280;17297;54.022;10.760;2022-12-10T12:51:34;101116.88;;;3.06;65.90
30516;BME280;17297;54.022;10.760;2022-12-10T12:54:04;101116.72;;;3.07;65.52
30516;BME280;17297;54.022;10.760;2022-12-10T12:56:48;101118.41;;;3.08;65.68
30516;BME280;17297;54.022;10.760;2022-12-10T13:04:46;101120.09;;;3.09;65.53
30516;BME280;17297;54.022;10.760;2022-12-10T13:09:49;101120.94;;;3.10;65.60
30516;BME280;17297;54.022;10.760;2022-12-10T13:17:36;101121.78;;;3.10;65.52
30516;BME280;17297;54.022;10.760;2022-12-10T13:22:59;101119.13;;;3.10;65.34
30516;BME280;17297;54.022;10.760;2022-12-10T13:25:42;101116.63;;;3.09;65.51
30516;BME280;17297;54.022;10.760;2022-12-10T13:36:36;101126.25;;;3.10;65.41
30516;BME280;17297;54.022;10.760;2022-12-10T13:41:27;101133.25;;;3.11;65.41
30516;BME280;17297;54.022;10.760;2022-12-10T13:44:39;101139.56;;;3.10;65.47
30516;BME280;17297;54.022;10.760;2022-12-10T13:49:49;101136.06;;;3.09;65.38
30516;BME280;17297;54.022;10.760;2022-12-10T13:52:22;101144.16;;;3.08;65.37
30516;BME280;17297;54.022;10.760;2022-12-10T13:55:16;101149.47;;;3.08;65.33
30516;BME280;17297;54.022;10.760;2022-12-10T14:03:33;101148.91;;;3.04;65.24
30516;BME280;17297;54.022;10.760;2022-12-10T14:06:12;101152.41;;;3.05;65.30
30516;BME280;17297;54.022;10.760;2022-12-10T14:08:44;101153.38;;;3.04;65.24
30516;BME280;17297;54.022;10.760;2022-12-10T14:11:19;101159.41;;;3.06;65.18
30516;BME280;17297;54.022;10.760;2022-12-10T14:13:49;101156.88;;;3.04;65.27
30516;BME280;17297;54.022;10.760;2022-12-10T14:16:19;101161.34;;;3.04;65.12
30516;BME280;17297;54.022;10.760;2022-12-10T14:18:52;101166.53;;;3.05;65.44